SEKCJA WYDRUKÓW, pokaż »

METAR EPBY 160700Z 24019KT 9999 BKN020 07/03 Q0996=

METAR EPGD 160700Z 26014KT 9999 -SHRA FEW007 SCT009CB BKN010 03/02
Q0992 =

METAR EPKK 160700Z 29016KT 9999 FEW038 08/02 Q1002 =

METAR EPKT 160700Z 28010KT CAVOK 06/00 Q1002 =

METAR EPLB 160700Z 28017KT 9999 FEW016 SCT043 10/06 Q0999 =

METAR EPLL 160700Z 26022KT 9999 FEW027 BKN035 07/01 Q1000 =

METAR EPML 160700Z AUTO 26014KT 9999 BKN024/// BKN061/// BKN110///
10/06 Q////=

METAR EPMO 160700Z 25020KT 9999 SCT022 BKN034 07/04 Q0998 =

METAR EPPO 160700Z 24012KT 9999 BKN020 OVC043 06/02 Q0999 =

METAR EPRA 160700Z 28021KT 9999 SCT024 08/03 Q1000=

METAR EPRZ 160700Z 24010KT 9999 -SHRA SCT043CB 11/08 Q1001 =

METAR EPSC 160700Z 24012KT 9999 -RA BKN015 06/03 Q0995 =

METAR EPSY 160700Z 24012KT 210V270 9999 -RA SCT005 BKN011 BKN017
05/04 Q0994=

METAR EPWA 160700Z 26019KT 9999 BKN026 07/02 Q0998 NOSIG=

METAR EPWR 160700Z 25015KT 9999 FEW036 08/M01 Q1002 =

METAR EPZG 160700Z 23016KT 9999 SCT026 BKN035 07/04 Q0999 =
 METAR EPZG
Lokalizacja:EPZG Zielona Góra Babimost
Czas:07:00 UTC
Średni kierunek wiatru:230 °
Średnia prędkość wiatru:16 węzłów
Widzialność:10 km i więcej
Pierwsza warstwa chmur:3/8 do 4/8, wysokość podstawy 2600 FT
Druga warstwa chmur:5/8 do 7/8, wysokość podstawy 3500 FT
Temperatura powietrza:7 °C
Temperatura punktu rosy:4 °C
Ciśnienie QNH:999 hPa